createdAt,value
2023-01-30T00:01:19.204Z,28.05
2023-01-30T00:03:46.901Z,27.42
2023-01-30T00:06:14.843Z,26.33
2023-01-30T00:08:42.351Z,26.42
2023-01-30T00:11:12.214Z,25.77
2023-01-30T00:13:41.107Z,25.38
2023-01-30T00:16:12.466Z,26.75
2023-01-30T00:18:41.628Z,27.05
2023-01-30T00:21:11.637Z,27.90
2023-01-30T00:23:39.353Z,26.85
2023-01-30T00:26:07.715Z,25.27
2023-01-30T00:28:35.596Z,27.27
2023-01-30T00:31:04.593Z,26.85
2023-01-30T00:33:36.482Z,28.33
2023-01-30T00:36:04.628Z,27.23
2023-01-30T00:38:31.994Z,29.00
2023-01-30T00:40:59.299Z,26.52
2023-01-30T00:43:45.714Z,27.70
2023-01-30T00:46:45.184Z,26.90
2023-01-30T00:49:12.750Z,27.15
2023-01-30T00:51:40.235Z,26.88
2023-01-30T00:54:08.217Z,29.00
2023-01-30T00:56:35.581Z,30.50
2023-01-30T00:59:04.219Z,28.73
2023-01-30T01:01:31.469Z,27.30
2023-01-30T01:03:58.773Z,26.08
2023-01-30T01:06:26.186Z,27.33
2023-01-30T01:08:53.606Z,28.27
2023-01-30T01:11:27.078Z,27.08
2023-01-30T01:14:00.433Z,27.52
2023-01-30T01:16:29.472Z,26.45
2023-01-30T01:18:59.451Z,26.20
2023-01-30T01:21:26.811Z,26.02
2023-01-30T01:23:57.052Z,25.48
2023-01-30T01:26:24.997Z,22.02
2023-01-30T01:28:57.036Z,23.77
2023-01-30T01:33:52.918Z,25.77
2023-01-30T01:36:49.766Z,25.38
2023-01-30T01:39:09.972Z,25.13
2023-01-30T01:41:37.328Z,27.42
2023-01-30T01:44:12.275Z,27.13
2023-01-30T01:46:48.756Z,27.23
2023-01-30T01:49:27.958Z,28.95
2023-01-30T01:52:00.885Z,28.38
2023-01-30T01:54:39.927Z,28.85
2023-01-30T01:57:15.209Z,29.20
2023-01-30T01:59:59.325Z,27.15
2023-01-30T02:02:27.212Z,27.55
2023-01-30T02:05:02.023Z,29.52
2023-01-30T02:07:36.925Z,28.42
2023-01-30T02:10:06.866Z,30.55
2023-01-30T02:12:34.758Z,29.48
2023-01-30T02:15:04.520Z,26.85
2023-01-30T05:33:47.385Z,39.90
2023-01-30T05:36:17.056Z,41.17
2023-01-30T05:38:45.403Z,40.80
2023-01-30T05:41:14.882Z,42.38
2023-01-30T05:43:43.192Z,40.13
2023-01-30T05:46:12.583Z,40.25
2023-01-30T05:48:40.371Z,42.17
2023-01-30T05:51:16.716Z,43.78
2023-01-30T05:53:44.513Z,41.80
2023-01-30T05:56:12.275Z,40.65
2023-01-30T05:58:39.560Z,40.70
2023-01-30T06:01:09.790Z,41.78
2023-01-30T06:03:37.955Z,40.47
2023-01-30T06:06:06.307Z,39.88
2023-01-30T06:08:34.010Z,39.42
2023-01-30T06:11:08.156Z,38.92
2023-01-30T06:13:36.353Z,39.40
2023-01-30T06:16:04.569Z,38.38
2023-01-30T06:18:31.980Z,38.38
2023-01-30T06:20:59.336Z,37.28
2023-01-30T06:23:28.285Z,36.30
2023-01-30T06:25:56.194Z,37.03
2023-01-30T06:28:25.683Z,36.53
2023-01-30T06:30:53.628Z,35.42
2023-01-30T06:33:21.234Z,36.67
2023-01-30T06:35:50.882Z,37.35
2023-01-30T06:38:20.618Z,36.97
2023-01-30T06:40:50.103Z,36.60
2023-01-30T06:43:17.929Z,36.67
2023-01-30T06:45:45.753Z,36.30
2023-01-30T06:48:13.925Z,37.42
2023-01-30T06:50:41.202Z,36.65
2023-01-30T06:53:08.959Z,35.38
2023-01-30T06:55:36.896Z,35.45
2023-01-30T06:58:14.819Z,35.42
2023-01-30T07:00:43.410Z,35.45
2023-01-30T07:03:16.056Z,35.63
2023-01-30T07:05:45.003Z,34.88
2023-01-30T07:08:13.690Z,34.50
2023-01-30T07:10:42.525Z,33.70
2023-01-30T07:13:10.040Z,34.78
2023-01-30T07:15:37.786Z,35.78
2023-01-30T07:18:05.571Z,35.33
2023-01-30T07:20:33.289Z,34.03
2023-01-30T07:23:01.800Z,34.20
2023-01-30T07:25:30.377Z,35.95
2023-01-30T07:27:59.907Z,35.63
2023-01-30T07:30:29.519Z,34.60
2023-01-30T07:32:58.670Z,34.45
2023-01-30T07:35:29.348Z,35.35
2023-01-30T07:37:57.951Z,32.95
2023-01-30T07:40:26.694Z,32.70
2023-01-30T07:43:02.812Z,33.38
2023-01-30T07:45:42.926Z,33.85
2023-01-30T07:48:16.573Z,34.30
2023-01-30T07:50:45.114Z,34.40
2023-01-30T07:53:15.276Z,33.80
2023-01-30T07:55:43.143Z,34.05
2023-01-30T07:58:14.678Z,33.72
2023-01-30T08:00:42.741Z,34.78
2023-01-30T08:03:16.094Z,34.50
2023-01-30T08:05:47.028Z,33.95
2023-01-30T08:08:15.898Z,33.70
2023-01-30T08:10:45.461Z,31.73
2023-01-30T08:13:13.049Z,33.08
2023-01-30T08:15:40.444Z,34.58
2023-01-30T08:18:08.464Z,32.38
2023-01-30T08:20:36.674Z,32.75
2023-01-30T08:23:04.369Z,33.92
2023-01-30T08:25:32.245Z,32.03
2023-01-30T08:28:00.420Z,34.10
2023-01-30T08:30:30.441Z,42.60
2023-01-30T08:32:58.450Z,33.35
2023-01-30T08:35:26.568Z,35.03
2023-01-30T08:37:54.090Z,37.40
2023-01-30T08:40:21.557Z,37.20
2023-01-30T08:42:48.933Z,36.92
2023-01-30T08:45:16.301Z,37.00
2023-01-30T08:47:43.637Z,35.85
2023-01-30T08:50:11.903Z,37.90
2023-01-30T08:52:39.416Z,36.38
2023-01-30T08:55:07.118Z,36.88
2023-01-30T08:57:34.779Z,36.13
2023-01-30T09:00:02.600Z,34.97
2023-01-30T09:02:31.172Z,35.03
2023-01-30T09:04:58.509Z,37.42
2023-01-30T09:07:27.681Z,36.03
2023-01-30T09:09:55.488Z,35.60
2023-01-30T09:12:22.849Z,35.88
2023-01-30T09:14:50.267Z,35.50
2023-01-30T09:17:17.889Z,34.83
2023-01-30T09:19:45.186Z,33.22
2023-01-30T09:22:12.524Z,35.47
2023-01-30T09:24:40.202Z,37.97
2023-01-30T09:27:07.610Z,36.95
2023-01-30T09:29:35.001Z,36.03
2023-01-30T09:32:02.568Z,38.80
2023-01-30T09:34:29.878Z,38.40
2023-01-30T09:37:04.362Z,37.58
2023-01-30T09:39:32.018Z,35.00
2023-01-30T09:42:05.686Z,36.85
2023-01-30T09:44:51.620Z,35.05
2023-01-30T09:47:38.704Z,35.17
2023-01-30T09:50:17.697Z,36.08
2023-01-30T09:53:24.029Z,34.50
2023-01-30T09:55:51.801Z,34.20
2023-01-30T09:58:22.717Z,34.47
2023-01-30T10:00:56.962Z,35.05
2023-01-30T10:03:30.130Z,35.17
2023-01-30T10:06:12.915Z,36.00
2023-01-30T10:08:49.877Z,34.50
2023-01-30T10:11:54.177Z,37.00
2023-01-30T10:14:47.520Z,36.45
2023-01-30T10:17:24.493Z,36.45
2023-01-30T10:20:10.669Z,37.15
2023-01-30T10:23:15.921Z,38.25
2023-01-30T10:25:55.156Z,39.00
2023-01-30T10:28:30.645Z,36.63
2023-01-30T10:31:10.053Z,37.35
2023-01-30T10:33:57.853Z,34.05
2023-01-30T10:36:32.723Z,34.15
2023-01-30T10:39:02.730Z,35.63
2023-01-30T10:41:37.678Z,35.05
2023-01-30T10:44:13.485Z,33.47
2023-01-30T10:46:49.493Z,38.53
2023-01-30T10:49:25.812Z,39.80
2023-01-30T10:52:15.148Z,38.08
2023-01-30T10:55:22.148Z,38.33
2023-01-30T10:58:20.029Z,40.78
2023-01-30T11:01:00.830Z,39.92
2023-01-30T11:03:38.246Z,41.80
2023-01-30T11:06:17.308Z,40.47
2023-01-30T11:08:45.271Z,41.25
2023-01-30T11:11:33.718Z,37.95
2023-01-30T11:14:09.988Z,40.17
2023-01-30T11:16:50.732Z,39.90
2023-01-30T11:19:23.676Z,39.58
2023-01-30T11:21:53.589Z,38.47
2023-01-30T11:24:31.352Z,38.90
2023-01-30T11:27:27.778Z,38.38
2023-01-30T11:30:17.732Z,40.00
2023-01-30T11:32:49.295Z,39.28
2023-01-30T11:35:25.821Z,37.75
2023-01-30T11:37:54.357Z,37.38
2023-01-30T11:40:28.050Z,37.88
2023-01-30T11:43:27.211Z,34.97
2023-01-30T11:45:55.774Z,36.72
2023-01-30T11:48:33.765Z,36.75
2023-01-30T11:51:16.824Z,34.08
2023-01-30T11:53:51.436Z,33.28
2023-01-30T11:56:31.187Z,34.40
2023-01-30T11:59:01.804Z,33.50
2023-01-30T12:01:34.524Z,33.72
2023-01-30T12:04:07.396Z,33.35
2023-01-30T12:06:37.717Z,33.45
2023-01-30T12:09:06.535Z,33.33
2023-01-30T12:11:37.048Z,35.05
2023-01-30T12:14:15.260Z,32.85
2023-01-30T12:16:54.810Z,34.35
2023-01-30T12:19:45.352Z,33.03
2023-01-30T12:22:26.557Z,34.40
2023-01-30T12:24:58.522Z,33.73
2023-01-30T12:27:44.816Z,31.63
2023-01-30T12:30:25.215Z,32.72
2023-01-30T12:32:58.524Z,31.00
2023-01-30T12:35:52.392Z,30.63
2023-01-30T12:38:34.963Z,34.38
2023-01-30T12:41:08.342Z,34.25
2023-01-30T12:43:47.557Z,32.50
2023-01-30T12:46:39.892Z,31.15
2023-01-30T12:49:31.676Z,33.00
2023-01-30T12:52:21.377Z,32.92
2023-01-30T12:55:05.253Z,32.35
2023-01-30T12:57:44.297Z,31.83
2023-01-30T13:00:22.284Z,33.65
2023-01-30T13:03:09.855Z,32.38
2023-01-30T13:06:19.367Z,34.10
2023-01-30T13:08:55.456Z,31.70
2023-01-30T13:11:48.141Z,31.88
2023-01-30T13:14:27.529Z,31.35
2023-01-30T13:17:09.710Z,33.28
2023-01-30T13:22:31.853Z,31.55
2023-01-30T13:25:22.413Z,35.15
2023-01-30T13:27:57.671Z,32.70
2023-01-30T13:30:27.741Z,35.60
2023-01-30T13:33:00.010Z,33.30
2023-01-30T13:35:45.624Z,32.10
2023-01-30T13:38:24.716Z,31.58
2023-01-30T13:40:56.705Z,31.73
2023-01-30T13:43:42.418Z,33.10
2023-01-30T13:46:14.316Z,33.03
2023-01-30T13:49:04.038Z,32.72
2023-01-30T13:51:49.441Z,30.65
2023-01-30T13:54:43.030Z,31.77
2023-01-30T13:57:19.754Z,33.38
2023-01-30T14:00:09.953Z,32.85
2023-01-30T14:03:05.810Z,34.63
2023-01-30T14:06:24.982Z,30.73
2023-01-30T14:08:59.458Z,35.25
2023-01-30T14:11:34.854Z,32.22
2023-01-30T14:14:25.594Z,36.00
2023-01-30T14:17:15.060Z,32.42
2023-01-30T14:19:43.877Z,29.48
2023-01-30T14:22:34.671Z,31.38
2023-01-30T14:25:29.991Z,32.75
2023-01-30T14:28:00.401Z,32.95
2023-01-30T14:30:49.440Z,30.67
2023-01-30T14:33:19.417Z,29.88
2023-01-30T14:36:07.408Z,33.33
2023-01-30T14:38:38.629Z,30.80
2023-01-30T14:41:09.391Z,31.85
2023-01-30T14:43:42.779Z,31.63
2023-01-30T14:46:13.275Z,31.17
2023-01-30T14:48:56.886Z,32.35
2023-01-30T14:51:45.001Z,33.22
2023-01-30T14:54:13.293Z,33.55
2023-01-30T14:56:50.186Z,34.15
2023-01-30T14:59:17.448Z,35.22
2023-01-30T15:02:00.034Z,33.90
2023-01-30T15:04:39.973Z,34.08
2023-01-30T15:07:22.385Z,31.50
2023-01-30T15:09:59.042Z,34.00
2023-01-30T15:12:55.885Z,34.38
2023-01-30T15:15:34.742Z,33.50
2023-01-30T15:18:51.875Z,34.35
2023-01-30T15:21:29.319Z,32.92
2023-01-30T15:24:21.925Z,34.15
2023-01-30T15:27:07.551Z,32.85
2023-01-30T15:29:53.775Z,33.72
2023-01-30T15:32:22.510Z,32.95
2023-01-30T15:35:02.420Z,33.67
2023-01-30T15:37:36.474Z,33.55
2023-01-30T15:40:16.845Z,34.20
2023-01-30T15:42:47.394Z,33.80
2023-01-30T15:45:17.708Z,35.78
2023-01-30T15:48:06.573Z,34.70
2023-01-30T15:50:33.986Z,34.75
2023-01-30T15:53:01.892Z,34.83
2023-01-30T15:55:33.809Z,36.33
2023-01-30T16:00:37.834Z,36.72
2023-01-30T16:03:11.015Z,35.22
2023-01-30T16:05:47.412Z,35.33
2023-01-30T16:08:26.991Z,35.17
2023-01-30T16:10:54.886Z,37.35
2023-01-30T16:13:23.850Z,38.35
2023-01-30T16:16:07.423Z,37.22
2023-01-30T16:18:42.957Z,37.05
2023-01-30T16:21:21.401Z,38.58
2023-01-30T16:24:00.602Z,41.67
2023-01-30T16:26:28.989Z,40.58
2023-01-30T16:29:06.424Z,39.67
2023-01-30T16:31:37.809Z,39.33
2023-01-30T16:34:05.836Z,40.17
2023-01-30T16:36:39.862Z,39.67
2023-01-30T16:39:29.682Z,40.10
2023-01-30T16:41:59.653Z,38.53
2023-01-30T16:44:31.904Z,41.75
2023-01-30T16:47:23.482Z,41.03
2023-01-30T16:49:52.816Z,40.05
2023-01-30T16:52:44.381Z,43.67
2023-01-30T16:55:21.107Z,42.25
2023-01-30T16:58:00.076Z,43.33
2023-01-30T17:00:50.424Z,46.83
2023-01-30T17:03:26.696Z,44.00
2023-01-30T17:05:54.350Z,44.17
2023-01-30T17:08:31.420Z,43.60
2023-01-30T17:11:03.803Z,45.17
2023-01-30T17:13:37.455Z,43.17
2023-01-30T17:16:23.219Z,43.53
2023-01-30T17:18:53.144Z,42.10
2023-01-30T17:21:22.873Z,42.08
2023-01-30T17:24:01.271Z,43.75
2023-01-30T17:26:30.221Z,44.38
2023-01-30T17:28:58.182Z,46.28
2023-01-30T17:31:25.731Z,44.40
2023-01-30T17:33:53.199Z,43.00
2023-01-30T17:36:25.136Z,43.35
2023-01-30T17:38:55.073Z,44.03
2023-01-30T17:41:33.394Z,45.05
2023-01-30T17:44:01.261Z,42.50
2023-01-30T17:46:51.840Z,44.85
2023-01-30T17:49:22.219Z,43.22
2023-01-30T17:51:53.924Z,44.65
2023-01-30T17:54:22.568Z,42.60
2023-01-30T17:56:55.958Z,44.42
2023-01-30T17:59:23.286Z,45.30
2023-01-30T18:01:52.478Z,46.20
2023-01-30T18:04:20.610Z,49.17
2023-01-30T18:06:55.912Z,47.60
2023-01-30T18:09:24.389Z,48.17
2023-01-30T18:11:51.686Z,46.30
2023-01-30T18:14:19.069Z,47.85
2023-01-30T18:16:46.535Z,46.17
2023-01-30T18:19:17.958Z,58.67
2023-01-30T18:21:45.656Z,56.25
2023-01-30T18:24:14.588Z,58.58
2023-01-30T18:26:43.024Z,62.78
2023-01-30T18:29:11.086Z,66.85
2023-01-30T18:31:40.068Z,54.33
2023-01-30T18:34:09.828Z,52.30
2023-01-30T18:36:38.214Z,53.15
2023-01-30T18:39:06.074Z,52.05
2023-01-30T18:41:35.275Z,58.85
2023-01-30T18:44:06.484Z,57.05
2023-01-30T18:46:34.438Z,59.30
2023-01-30T18:49:02.302Z,58.83
2023-01-30T18:51:33.977Z,62.03
2023-01-30T18:56:31.763Z,59.33
2023-01-30T18:59:04.477Z,59.55
2023-01-30T19:01:35.437Z,56.55
2023-01-30T19:04:04.443Z,52.45
2023-01-30T19:06:35.717Z,46.47
2023-01-30T19:09:03.770Z,59.10
2023-01-30T19:11:51.278Z,59.95
2023-01-30T19:14:18.947Z,54.08
2023-01-30T19:16:47.567Z,47.03
2023-01-30T19:19:15.058Z,41.95
2023-01-30T19:21:42.789Z,42.42
2023-01-30T19:24:15.511Z,40.10
2023-01-30T19:26:43.004Z,43.38
2023-01-30T19:29:10.383Z,44.00
2023-01-30T19:31:38.137Z,48.47
2023-01-30T19:34:06.318Z,46.83
2023-01-30T19:36:36.543Z,47.97
2023-01-30T19:39:06.033Z,45.20
2023-01-30T19:41:36.217Z,43.95
2023-01-30T19:44:06.747Z,42.22
2023-01-30T19:46:34.899Z,42.80
2023-01-30T19:49:03.448Z,43.08
2023-01-30T19:51:33.490Z,43.90
2023-01-30T19:54:06.608Z,42.17
2023-01-30T19:56:34.945Z,41.70
2023-01-30T19:59:02.749Z,41.75
2023-01-30T20:01:35.331Z,41.85
2023-01-30T20:04:03.710Z,41.20
2023-01-30T20:06:34.400Z,44.70
2023-01-30T20:09:05.300Z,42.38
2023-01-30T20:11:37.569Z,40.67
2023-01-30T20:14:07.111Z,42.22
2023-01-30T20:16:36.084Z,42.15
2023-01-30T20:19:14.549Z,41.53
2023-01-30T20:21:43.161Z,40.13
2023-01-30T20:24:15.580Z,42.53
2023-01-30T20:26:45.816Z,40.60
2023-01-30T20:29:16.768Z,49.78
2023-01-30T20:31:45.359Z,50.05
2023-01-30T20:34:14.563Z,48.25
2023-01-30T20:36:43.013Z,50.38
2023-01-30T20:39:11.480Z,51.40
2023-01-30T20:41:39.024Z,44.72
2023-01-30T20:44:08.436Z,47.65
2023-01-30T20:46:43.386Z,45.70
2023-01-30T20:49:12.502Z,45.40
2023-01-30T20:51:40.314Z,46.22
2023-01-30T20:54:10.589Z,50.72
2023-01-30T20:56:42.858Z,53.13
2023-01-30T20:59:13.644Z,52.03
2023-01-30T21:01:42.296Z,48.65
2023-01-30T21:04:14.619Z,49.90
2023-01-30T21:06:45.736Z,45.00
2023-01-30T21:09:22.571Z,45.20
2023-01-30T21:11:52.504Z,46.30
2023-01-30T21:14:19.880Z,45.53
2023-01-30T21:16:48.603Z,42.17
2023-01-30T21:19:17.629Z,43.67
2023-01-30T21:21:50.580Z,47.50
2023-01-30T21:24:39.274Z,49.55
2023-01-30T21:27:26.494Z,44.75
2023-01-30T21:30:12.914Z,44.05
2023-01-30T21:32:59.001Z,47.78
2023-01-30T21:35:45.009Z,50.78
2023-01-30T21:38:49.634Z,42.08
2023-01-30T21:41:59.906Z,41.28
2023-01-30T21:44:46.180Z,43.08
2023-01-30T21:47:32.602Z,45.70
2023-01-30T21:50:18.531Z,44.10
2023-01-30T21:53:05.059Z,47.22
2023-01-30T21:55:52.507Z,46.90
2023-01-30T21:58:38.720Z,48.45
2023-01-30T22:01:25.302Z,46.78
2023-01-30T22:04:14.757Z,42.10
2023-01-30T22:07:01.273Z,40.22
2023-01-30T22:09:48.823Z,42.38
2023-01-30T22:12:38.689Z,68.00
2023-01-30T22:15:26.345Z,46.67
2023-01-30T22:18:12.469Z,46.22
2023-01-30T22:21:18.503Z,49.88
2023-01-30T22:24:07.409Z,50.20
2023-01-30T22:26:53.262Z,53.00
2023-01-30T22:29:39.701Z,59.78
2023-01-30T22:32:25.569Z,65.72
2023-01-30T22:35:12.077Z,62.95
2023-01-30T22:37:57.785Z,47.75
2023-01-30T22:40:43.563Z,50.70
2023-01-30T22:43:31.410Z,47.38
2023-01-30T22:46:18.369Z,45.55
2023-01-30T22:49:06.585Z,45.67
2023-01-30T22:51:52.409Z,45.17
2023-01-30T22:54:38.238Z,42.72
2023-01-30T22:57:24.702Z,42.40
2023-01-30T23:00:11.414Z,41.97
2023-01-30T23:02:58.281Z,46.63
2023-01-30T23:05:44.433Z,42.13
2023-01-30T23:08:31.653Z,41.10
2023-01-30T23:11:24.066Z,40.35
2023-01-30T23:14:13.187Z,40.60
2023-01-30T23:16:59.703Z,41.35
2023-01-30T23:19:45.785Z,42.38
2023-01-30T23:22:31.905Z,41.10
2023-01-30T23:25:18.413Z,42.33
2023-01-30T23:28:04.416Z,40.03
2023-01-30T23:30:50.180Z,41.63
2023-01-30T23:33:36.453Z,40.05
2023-01-30T23:36:22.990Z,42.55
2023-01-30T23:39:12.091Z,42.85
2023-01-30T23:41:57.928Z,44.45
2023-01-30T23:44:43.860Z,41.25
2023-01-30T23:47:29.624Z,39.70
2023-01-30T23:50:15.804Z,41.65
2023-01-30T23:53:04.290Z,42.35
2023-01-30T23:55:52.063Z,42.85
2023-01-30T23:58:38.983Z,43.28
